sensor_id;sensor_type;location;lat;lon;timestamp;temperature;humidity
52973;DHT22;38837;48.916;2.336;2023-12-20T00:00:32;28.60;31.60
52973;DHT22;38837;48.916;2.336;2023-12-20T00:02:35;28.60;31.70
52973;DHT22;38837;48.916;2.336;2023-12-20T00:04:37;28.60;31.60
52973;DHT22;38837;48.916;2.336;2023-12-20T00:06:39;28.50;31.60
52973;DHT22;38837;48.916;2.336;2023-12-20T00:08:41;28.40;32.00
52973;DHT22;38837;48.916;2.336;2023-12-20T00:10:43;28.30;31.70
52973;DHT22;38837;48.916;2.336;2023-12-20T00:12:45;28.40;31.80
52973;DHT22;38837;48.916;2.336;2023-12-20T00:14:47;28.40;31.80
52973;DHT22;38837;48.916;2.336;2023-12-20T00:16:49;28.50;31.80
52973;DHT22;38837;48.916;2.336;2023-12-20T00:18:51;28.50;31.70
52973;DHT22;38837;48.916;2.336;2023-12-20T00:20:53;28.50;31.60
52973;DHT22;38837;48.916;2.336;2023-12-20T00:22:58;28.50;31.60
52973;DHT22;38837;48.916;2.336;2023-12-20T00:25:00;28.50;31.50
52973;DHT22;38837;48.916;2.336;2023-12-20T00:27:02;28.40;31.50
52973;DHT22;38837;48.916;2.336;2023-12-20T00:29:04;28.40;31.60
52973;DHT22;38837;48.916;2.336;2023-12-20T00:31:05;28.30;31.70
52973;DHT22;38837;48.916;2.336;2023-12-20T00:33:08;28.30;31.70
52973;DHT22;38837;48.916;2.336;2023-12-20T00:35:10;28.20;31.80
52973;DHT22;38837;48.916;2.336;2023-12-20T00:37:11;28.20;31.70
52973;DHT22;38837;48.916;2.336;2023-12-20T00:39:13;28.30;31.70
52973;DHT22;38837;48.916;2.336;2023-12-20T00:41:15;28.40;31.60
52973;DHT22;38837;48.916;2.336;2023-12-20T00:43:17;28.40;31.40
52973;DHT22;38837;48.916;2.336;2023-12-20T00:45:19;28.00;31.40
52973;DHT22;38837;48.916;2.336;2023-12-20T00:47:21;28.00;31.70
52973;DHT22;38837;48.916;2.336;2023-12-20T00:49:23;27.90;31.50
52973;DHT22;38837;48.916;2.336;2023-12-20T00:51:25;28.00;31.40
52973;DHT22;38837;48.916;2.336;2023-12-20T00:53:27;27.90;31.50
52973;DHT22;38837;48.916;2.336;2023-12-20T00:55:29;27.90;31.50
52973;DHT22;38837;48.916;2.336;2023-12-20T00:57:31;28.10;31.40
52973;DHT22;38837;48.916;2.336;2023-12-20T00:59:33;28.10;31.40
52973;DHT22;38837;48.916;2.336;2023-12-20T01:01:35;28.20;31.20
52973;DHT22;38837;48.916;2.336;2023-12-20T01:03:37;28.30;31.30
52973;DHT22;38837;48.916;2.336;2023-12-20T01:05:39;28.30;31.10
52973;DHT22;38837;48.916;2.336;2023-12-20T01:07:41;28.30;31.00
52973;DHT22;38837;48.916;2.336;2023-12-20T01:09:43;28.30;30.80
52973;DHT22;38837;48.916;2.336;2023-12-20T01:11:45;28.20;30.90
52973;DHT22;38837;48.916;2.336;2023-12-20T01:13:49;28.10;30.90
52973;DHT22;38837;48.916;2.336;2023-12-20T01:15:51;28.00;30.90
52973;DHT22;38837;48.916;2.336;2023-12-20T01:17:53;28.00;30.90
52973;DHT22;38837;48.916;2.336;2023-12-20T01:19:55;28.10;31.00
52973;DHT22;38837;48.916;2.336;2023-12-20T01:21:57;28.20;30.90
52973;DHT22;38837;48.916;2.336;2023-12-20T01:23:59;28.30;30.70
52973;DHT22;38837;48.916;2.336;2023-12-20T01:26:01;28.30;30.70
52973;DHT22;38837;48.916;2.336;2023-12-20T01:28:04;28.30;30.70
52973;DHT22;38837;48.916;2.336;2023-12-20T01:30:06;28.30;30.60
52973;DHT22;38837;48.916;2.336;2023-12-20T01:32:08;28.30;30.60
52973;DHT22;38837;48.916;2.336;2023-12-20T01:34:10;28.20;30.60
52973;DHT22;38837;48.916;2.336;2023-12-20T01:36:13;28.10;30.60
52973;DHT22;38837;48.916;2.336;2023-12-20T01:38:14;28.10;30.70
52973;DHT22;38837;48.916;2.336;2023-12-20T01:40:16;28.10;30.70
52973;DHT22;38837;48.916;2.336;2023-12-20T01:42:18;28.10;30.80
52973;DHT22;38837;48.916;2.336;2023-12-20T01:44:20;28.20;30.70
52973;DHT22;38837;48.916;2.336;2023-12-20T01:46:22;28.20;30.60
52973;DHT22;38837;48.916;2.336;2023-12-20T01:48:25;28.30;31.10
52973;DHT22;38837;48.916;2.336;2023-12-20T01:50:28;28.30;30.40
52973;DHT22;38837;48.916;2.336;2023-12-20T01:52:30;28.30;30.40
52973;DHT22;38837;48.916;2.336;2023-12-20T01:54:32;28.30;30.50
52973;DHT22;38837;48.916;2.336;2023-12-20T01:56:35;28.20;30.40
52973;DHT22;38837;48.916;2.336;2023-12-20T01:58:39;28.10;30.40
52973;DHT22;38837;48.916;2.336;2023-12-20T02:00:44;28.10;30.60
52973;DHT22;38837;48.916;2.336;2023-12-20T02:02:46;28.10;30.60
52973;DHT22;38837;48.916;2.336;2023-12-20T02:04:48;28.20;30.60
52973;DHT22;38837;48.916;2.336;2023-12-20T02:06:52;28.30;30.50
52973;DHT22;38837;48.916;2.336;2023-12-20T02:08:55;28.30;30.40
52973;DHT22;38837;48.916;2.336;2023-12-20T02:10:57;28.30;30.30
52973;DHT22;38837;48.916;2.336;2023-12-20T02:12:58;28.30;30.30
52973;DHT22;38837;48.916;2.336;2023-12-20T02:15:01;28.30;30.30
52973;DHT22;38837;48.916;2.336;2023-12-20T02:17:03;28.20;30.90
52973;DHT22;38837;48.916;2.336;2023-12-20T02:19:14;28.20;30.40
52973;DHT22;38837;48.916;2.336;2023-12-20T02:21:24;28.10;30.40
52973;DHT22;38837;48.916;2.336;2023-12-20T02:23:26;28.10;30.50
52973;DHT22;38837;48.916;2.336;2023-12-20T02:25:28;28.20;30.80
52973;DHT22;38837;48.916;2.336;2023-12-20T02:27:30;28.30;30.50
52973;DHT22;38837;48.916;2.336;2023-12-20T02:29:36;28.30;30.40
52973;DHT22;38837;48.916;2.336;2023-12-20T02:31:38;28.40;30.30
52973;DHT22;38837;48.916;2.336;2023-12-20T02:33:39;28.40;30.20
52973;DHT22;38837;48.916;2.336;2023-12-20T02:35:43;28.40;30.20
52973;DHT22;38837;48.916;2.336;2023-12-20T02:37:45;28.30;30.20
52973;DHT22;38837;48.916;2.336;2023-12-20T02:39:47;28.30;30.20
52973;DHT22;38837;48.916;2.336;2023-12-20T02:41:49;28.20;30.20
52973;DHT22;38837;48.916;2.336;2023-12-20T02:43:51;28.10;30.30
52973;DHT22;38837;48.916;2.336;2023-12-20T02:45:53;28.10;30.40
52973;DHT22;38837;48.916;2.336;2023-12-20T02:47:55;28.20;30.40
52973;DHT22;38837;48.916;2.336;2023-12-20T02:49:57;28.20;30.30
52973;DHT22;38837;48.916;2.336;2023-12-20T02:52:00;28.40;30.90
52973;DHT22;38837;48.916;2.336;2023-12-20T02:54:02;28.30;30.10
52973;DHT22;38837;48.916;2.336;2023-12-20T02:56:04;28.40;30.10
52973;DHT22;38837;48.916;2.336;2023-12-20T02:58:06;28.40;30.10
52973;DHT22;38837;48.916;2.336;2023-12-20T03:00:09;28.30;30.10
52973;DHT22;38837;48.916;2.336;2023-12-20T03:02:11;28.20;30.10
52973;DHT22;38837;48.916;2.336;2023-12-20T03:04:13;28.10;30.20
52973;DHT22;38837;48.916;2.336;2023-12-20T03:06:18;28.10;30.30
52973;DHT22;38837;48.916;2.336;2023-12-20T03:08:20;28.20;30.30
52973;DHT22;38837;48.916;2.336;2023-12-20T03:10:22;28.20;30.20
52973;DHT22;38837;48.916;2.336;2023-12-20T03:12:28;28.30;30.20
52973;DHT22;38837;48.916;2.336;2023-12-20T03:14:30;28.30;30.10
52973;DHT22;38837;48.916;2.336;2023-12-20T03:16:32;28.40;30.00
52973;DHT22;38837;48.916;2.336;2023-12-20T03:18:37;28.40;30.00
52973;DHT22;38837;48.916;2.336;2023-12-20T03:20:40;28.40;30.00
52973;DHT22;38837;48.916;2.336;2023-12-20T03:22:42;28.30;30.10
52973;DHT22;38837;48.916;2.336;2023-12-20T03:24:44;28.20;30.10
52973;DHT22;38837;48.916;2.336;2023-12-20T03:26:46;28.10;30.10
52973;DHT22;38837;48.916;2.336;2023-12-20T03:28:48;28.10;30.10
52973;DHT22;38837;48.916;2.336;2023-12-20T03:30:50;28.20;30.20
52973;DHT22;38837;48.916;2.336;2023-12-20T03:32:52;28.20;30.10
52973;DHT22;38837;48.916;2.336;2023-12-20T03:34:54;28.30;30.10
52973;DHT22;38837;48.916;2.336;2023-12-20T03:36:56;28.30;30.00
52973;DHT22;38837;48.916;2.336;2023-12-20T03:38:58;28.30;30.00
52973;DHT22;38837;48.916;2.336;2023-12-20T03:41:00;28.30;30.00
52973;DHT22;38837;48.916;2.336;2023-12-20T03:43:02;28.30;30.00
52973;DHT22;38837;48.916;2.336;2023-12-20T03:45:04;28.20;30.00
52973;DHT22;38837;48.916;2.336;2023-12-20T03:47:06;28.20;30.00
52973;DHT22;38837;48.916;2.336;2023-12-20T03:49:08;28.10;30.00
52973;DHT22;38837;48.916;2.336;2023-12-20T03:51:10;28.10;30.10
52973;DHT22;38837;48.916;2.336;2023-12-20T03:53:12;28.20;30.10
52973;DHT22;38837;48.916;2.336;2023-12-20T03:55:14;28.20;30.00
52973;DHT22;38837;48.916;2.336;2023-12-20T03:57:16;28.30;30.00
52973;DHT22;38837;48.916;2.336;2023-12-20T03:59:18;28.30;30.00
52973;DHT22;38837;48.916;2.336;2023-12-20T04:01:20;28.40;30.00
52973;DHT22;38837;48.916;2.336;2023-12-20T04:03:22;28.30;29.90
52973;DHT22;38837;48.916;2.336;2023-12-20T04:05:24;28.30;30.00
52973;DHT22;38837;48.916;2.336;2023-12-20T04:07:26;28.20;30.00
52973;DHT22;38837;48.916;2.336;2023-12-20T04:09:28;28.10;30.00
52973;DHT22;38837;48.916;2.336;2023-12-20T04:11:29;28.10;30.00
52973;DHT22;38837;48.916;2.336;2023-12-20T04:13:32;28.10;30.00
52973;DHT22;38837;48.916;2.336;2023-12-20T04:15:34;28.10;30.00
52973;DHT22;38837;48.916;2.336;2023-12-20T04:17:36;28.30;30.00
52973;DHT22;38837;48.916;2.336;2023-12-20T04:19:38;28.30;30.00
52973;DHT22;38837;48.916;2.336;2023-12-20T04:21:40;28.30;29.90
52973;DHT22;38837;48.916;2.336;2023-12-20T04:23:42;28.30;29.90
52973;DHT22;38837;48.916;2.336;2023-12-20T04:25:44;28.30;29.80
52973;DHT22;38837;48.916;2.336;2023-12-20T04:27:45;28.20;29.80
52973;DHT22;38837;48.916;2.336;2023-12-20T04:29:48;28.20;29.90
52973;DHT22;38837;48.916;2.336;2023-12-20T04:31:50;28.10;29.90
52973;DHT22;38837;48.916;2.336;2023-12-20T04:33:53;28.10;30.00
52973;DHT22;38837;48.916;2.336;2023-12-20T04:35:55;28.10;30.00
52973;DHT22;38837;48.916;2.336;2023-12-20T04:37:57;28.20;30.00
52973;DHT22;38837;48.916;2.336;2023-12-20T04:39:59;28.20;29.90
52973;DHT22;38837;48.916;2.336;2023-12-20T04:42:01;28.30;29.90
52973;DHT22;38837;48.916;2.336;2023-12-20T04:44:03;28.30;29.80
52973;DHT22;38837;48.916;2.336;2023-12-20T04:46:05;28.30;29.80
52973;DHT22;38837;48.916;2.336;2023-12-20T04:48:07;28.20;29.80
52973;DHT22;38837;48.916;2.336;2023-12-20T04:50:09;28.20;29.80
52973;DHT22;38837;48.916;2.336;2023-12-20T04:52:12;28.10;29.80
52973;DHT22;38837;48.916;2.336;2023-12-20T04:54:14;28.10;29.90
52973;DHT22;38837;48.916;2.336;2023-12-20T04:56:16;28.10;30.00
52973;DHT22;38837;48.916;2.336;2023-12-20T04:58:18;28.10;29.90
52973;DHT22;38837;48.916;2.336;2023-12-20T05:00:20;28.20;29.90
52973;DHT22;38837;48.916;2.336;2023-12-20T05:02:22;28.30;30.30
52973;DHT22;38837;48.916;2.336;2023-12-20T05:04:24;28.30;29.80
52973;DHT22;38837;48.916;2.336;2023-12-20T05:06:26;28.30;29.80
52973;DHT22;38837;48.916;2.336;2023-12-20T05:08:27;28.30;29.80
52973;DHT22;38837;48.916;2.336;2023-12-20T05:10:29;28.20;29.70
52973;DHT22;38837;48.916;2.336;2023-12-20T05:12:31;28.20;29.70
52973;DHT22;38837;48.916;2.336;2023-12-20T05:14:33;28.10;29.80
52973;DHT22;38837;48.916;2.336;2023-12-20T05:16:35;28.00;29.80
52973;DHT22;38837;48.916;2.336;2023-12-20T05:18:36;28.10;29.90
52973;DHT22;38837;48.916;2.336;2023-12-20T05:20:39;28.20;29.90
52973;DHT22;38837;48.916;2.336;2023-12-20T05:22:41;28.20;29.90
52973;DHT22;38837;48.916;2.336;2023-12-20T05:24:43;28.20;29.80
52973;DHT22;38837;48.916;2.336;2023-12-20T05:26:45;28.30;29.70
52973;DHT22;38837;48.916;2.336;2023-12-20T05:28:46;28.30;29.70
52973;DHT22;38837;48.916;2.336;2023-12-20T05:30:48;28.30;29.60
52973;DHT22;38837;48.916;2.336;2023-12-20T05:32:50;28.20;29.60
52973;DHT22;38837;48.916;2.336;2023-12-20T05:34:53;28.20;29.70
52973;DHT22;38837;48.916;2.336;2023-12-20T05:36:55;28.10;29.70
52973;DHT22;38837;48.916;2.336;2023-12-20T05:38:56;28.00;29.70
52973;DHT22;38837;48.916;2.336;2023-12-20T05:40:58;28.10;30.20
52973;DHT22;38837;48.916;2.336;2023-12-20T05:43:00;28.20;29.80
52973;DHT22;38837;48.916;2.336;2023-12-20T05:45:02;28.20;29.70
52973;DHT22;38837;48.916;2.336;2023-12-20T05:47:04;28.30;29.70
52973;DHT22;38837;48.916;2.336;2023-12-20T05:49:06;28.30;29.60
52973;DHT22;38837;48.916;2.336;2023-12-20T05:51:11;28.30;29.60
52973;DHT22;38837;48.916;2.336;2023-12-20T05:53:13;28.30;29.60
52973;DHT22;38837;48.916;2.336;2023-12-20T05:55:15;28.20;29.50
52973;DHT22;38837;48.916;2.336;2023-12-20T05:57:17;28.20;29.60
52973;DHT22;38837;48.916;2.336;2023-12-20T05:59:19;28.10;29.60
52973;DHT22;38837;48.916;2.336;2023-12-20T06:01:21;28.10;29.70
52973;DHT22;38837;48.916;2.336;2023-12-20T06:03:23;28.10;29.70
52973;DHT22;38837;48.916;2.336;2023-12-20T06:05:25;28.20;29.70
52973;DHT22;38837;48.916;2.336;2023-12-20T06:07:27;28.20;29.60
52973;DHT22;38837;48.916;2.336;2023-12-20T06:09:29;28.30;29.60
52973;DHT22;38837;48.916;2.336;2023-12-20T06:11:32;28.30;29.60
52973;DHT22;38837;48.916;2.336;2023-12-20T06:13:34;28.30;29.50
52973;DHT22;38837;48.916;2.336;2023-12-20T06:15:37;28.20;29.50
52973;DHT22;38837;48.916;2.336;2023-12-20T06:17:39;28.20;29.50
52973;DHT22;38837;48.916;2.336;2023-12-20T06:19:40;28.10;29.50
52973;DHT22;38837;48.916;2.336;2023-12-20T06:21:44;28.10;29.60
52973;DHT22;38837;48.916;2.336;2023-12-20T06:23:46;28.00;29.60
52973;DHT22;38837;48.916;2.336;2023-12-20T06:25:48;28.10;29.70
52973;DHT22;38837;48.916;2.336;2023-12-20T06:27:50;28.20;29.70
52973;DHT22;38837;48.916;2.336;2023-12-20T06:29:51;28.20;29.60
52973;DHT22;38837;48.916;2.336;2023-12-20T06:31:53;28.30;29.50
52973;DHT22;38837;48.916;2.336;2023-12-20T06:33:55;28.30;29.50
52973;DHT22;38837;48.916;2.336;2023-12-20T06:36:00;28.30;29.50
52973;DHT22;38837;48.916;2.336;2023-12-20T06:38:03;28.20;29.50
52973;DHT22;38837;48.916;2.336;2023-12-20T06:40:05;28.20;29.50
52973;DHT22;38837;48.916;2.336;2023-12-20T06:42:10;28.10;29.50
52973;DHT22;38837;48.916;2.336;2023-12-20T06:44:12;28.00;29.60
52973;DHT22;38837;48.916;2.336;2023-12-20T06:46:14;28.10;29.60
52973;DHT22;38837;48.916;2.336;2023-12-20T06:48:16;28.10;29.60
52973;DHT22;38837;48.916;2.336;2023-12-20T06:50:20;28.20;29.60
52973;DHT22;38837;48.916;2.336;2023-12-20T06:52:22;28.20;29.50
52973;DHT22;38837;48.916;2.336;2023-12-20T06:54:24;28.30;29.50
52973;DHT22;38837;48.916;2.336;2023-12-20T06:56:26;28.20;29.40
52973;DHT22;38837;48.916;2.336;2023-12-20T06:58:28;28.30;29.50
52973;DHT22;38837;48.916;2.336;2023-12-20T07:00:30;28.20;29.40
52973;DHT22;38837;48.916;2.336;2023-12-20T07:02:32;28.10;29.40
52973;DHT22;38837;48.916;2.336;2023-12-20T07:04:35;28.00;29.50
52973;DHT22;38837;48.916;2.336;2023-12-20T07:06:40;28.00;29.60
52973;DHT22;38837;48.916;2.336;2023-12-20T07:08:42;28.00;29.60
52973;DHT22;38837;48.916;2.336;2023-12-20T07:10:44;28.10;29.50
52973;DHT22;38837;48.916;2.336;2023-12-20T07:12:46;28.20;29.50
52973;DHT22;38837;48.916;2.336;2023-12-20T07:14:48;28.20;29.40
52973;DHT22;38837;48.916;2.336;2023-12-20T07:16:50;28.20;29.40
52973;DHT22;38837;48.916;2.336;2023-12-20T07:18:52;28.30;29.40
52973;DHT22;38837;48.916;2.336;2023-12-20T07:20:54;28.20;29.40
52973;DHT22;38837;48.916;2.336;2023-12-20T07:22:57;28.20;29.40
52973;DHT22;38837;48.916;2.336;2023-12-20T07:24:59;28.10;29.40
52973;DHT22;38837;48.916;2.336;2023-12-20T07:27:02;28.00;29.50
52973;DHT22;38837;48.916;2.336;2023-12-20T07:29:04;28.00;29.50
52973;DHT22;38837;48.916;2.336;2023-12-20T07:31:06;28.00;29.50
52973;DHT22;38837;48.916;2.336;2023-12-20T07:33:07;28.10;29.50
52973;DHT22;38837;48.916;2.336;2023-12-20T07:35:11;28.20;29.50
52973;DHT22;38837;48.916;2.336;2023-12-20T07:37:13;28.20;29.40
52973;DHT22;38837;48.916;2.336;2023-12-20T07:39:15;28.20;29.40
52973;DHT22;38837;48.916;2.336;2023-12-20T07:41:17;28.20;29.30
52973;DHT22;38837;48.916;2.336;2023-12-20T07:43:22;28.20;29.40
52973;DHT22;38837;48.916;2.336;2023-12-20T07:45:24;28.20;29.40
52973;DHT22;38837;48.916;2.336;2023-12-20T07:47:26;28.00;29.40
52973;DHT22;38837;48.916;2.336;2023-12-20T07:49:28;28.00;29.50
52973;DHT22;38837;48.916;2.336;2023-12-20T07:51:30;28.00;29.50
52973;DHT22;38837;48.916;2.336;2023-12-20T07:53:33;28.00;29.50
52973;DHT22;38837;48.916;2.336;2023-12-20T07:55:34;28.10;29.50
52973;DHT22;38837;48.916;2.336;2023-12-20T07:57:36;28.20;29.40
52973;DHT22;38837;48.916;2.336;2023-12-20T07:59:39;28.20;29.30
52973;DHT22;38837;48.916;2.336;2023-12-20T08:01:41;28.20;29.30
52973;DHT22;38837;48.916;2.336;2023-12-20T08:03:44;28.20;29.30
52973;DHT22;38837;48.916;2.336;2023-12-20T08:05:46;28.20;29.30
52973;DHT22;38837;48.916;2.336;2023-12-20T08:07:48;28.20;29.40
52973;DHT22;38837;48.916;2.336;2023-12-20T08:09:49;28.00;29.30
52973;DHT22;38837;48.916;2.336;2023-12-20T08:11:53;27.90;29.40
52973;DHT22;38837;48.916;2.336;2023-12-20T08:13:55;28.00;29.40
52973;DHT22;38837;48.916;2.336;2023-12-20T08:15:57;28.10;29.30
52973;DHT22;38837;48.916;2.336;2023-12-20T08:17:59;28.20;29.20
52973;DHT22;38837;48.916;2.336;2023-12-20T08:20:01;28.30;29.10
52973;DHT22;38837;48.916;2.336;2023-12-20T08:22:03;28.30;29.00
52973;DHT22;38837;48.916;2.336;2023-12-20T08:24:05;28.30;29.00
52973;DHT22;38837;48.916;2.336;2023-12-20T08:26:08;28.30;28.90
52973;DHT22;38837;48.916;2.336;2023-12-20T08:28:09;28.30;28.90
52973;DHT22;38837;48.916;2.336;2023-12-20T08:30:11;28.20;28.90
52973;DHT22;38837;48.916;2.336;2023-12-20T08:32:14;28.10;28.90
52973;DHT22;38837;48.916;2.336;2023-12-20T08:34:16;28.10;29.00
52973;DHT22;38837;48.916;2.336;2023-12-20T08:36:19;28.00;29.10
52973;DHT22;38837;48.916;2.336;2023-12-20T08:38:23;28.10;29.00
52973;DHT22;38837;48.916;2.336;2023-12-20T08:40:24;28.20;28.90
52973;DHT22;38837;48.916;2.336;2023-12-20T08:42:26;28.30;28.80
52973;DHT22;38837;48.916;2.336;2023-12-20T08:44:32;28.30;28.80
52973;DHT22;38837;48.916;2.336;2023-12-20T08:46:34;28.30;28.80
52973;DHT22;38837;48.916;2.336;2023-12-20T08:48:37;28.30;28.90
52973;DHT22;38837;48.916;2.336;2023-12-20T08:50:39;28.40;28.70
52973;DHT22;38837;48.916;2.336;2023-12-20T08:52:41;28.30;28.70
52973;DHT22;38837;48.916;2.336;2023-12-20T08:54:43;28.20;29.30
52973;DHT22;38837;48.916;2.336;2023-12-20T08:56:46;28.10;28.90
52973;DHT22;38837;48.916;2.336;2023-12-20T08:58:48;28.10;29.00
52973;DHT22;38837;48.916;2.336;2023-12-20T09:00:50;28.20;29.00
52973;DHT22;38837;48.916;2.336;2023-12-20T09:02:52;28.20;29.00
52973;DHT22;38837;48.916;2.336;2023-12-20T09:04:54;28.20;29.00
52973;DHT22;38837;48.916;2.336;2023-12-20T09:06:59;28.20;28.90
52973;DHT22;38837;48.916;2.336;2023-12-20T09:09:03;28.30;29.00
52973;DHT22;38837;48.916;2.336;2023-12-20T09:11:05;28.20;29.00
52973;DHT22;38837;48.916;2.336;2023-12-20T09:13:07;28.10;29.00
52973;DHT22;38837;48.916;2.336;2023-12-20T09:15:09;28.10;29.00
52973;DHT22;38837;48.916;2.336;2023-12-20T09:17:12;28.00;29.10
52973;DHT22;38837;48.916;2.336;2023-12-20T09:19:14;28.00;29.20
52973;DHT22;38837;48.916;2.336;2023-12-20T09:21:16;28.00;29.20
52973;DHT22;38837;48.916;2.336;2023-12-20T09:23:18;28.10;29.20
52973;DHT22;38837;48.916;2.336;2023-12-20T09:25:20;28.20;29.20
52973;DHT22;38837;48.916;2.336;2023-12-20T09:27:22;28.20;29.10
52973;DHT22;38837;48.916;2.336;2023-12-20T09:29:24;28.20;29.00
52973;DHT22;38837;48.916;2.336;2023-12-20T09:31:26;28.20;29.00
52973;DHT22;38837;48.916;2.336;2023-12-20T09:33:28;28.20;29.00
52973;DHT22;38837;48.916;2.336;2023-12-20T09:35:30;28.10;29.10
52973;DHT22;38837;48.916;2.336;2023-12-20T09:37:32;28.10;29.20
52973;DHT22;38837;48.916;2.336;2023-12-20T09:39:34;28.00;29.20
52973;DHT22;38837;48.916;2.336;2023-12-20T09:41:37;28.10;29.30
52973;DHT22;38837;48.916;2.336;2023-12-20T09:43:42;28.10;29.20
52973;DHT22;38837;48.916;2.336;2023-12-20T09:45:47;28.20;29.20
52973;DHT22;38837;48.916;2.336;2023-12-20T09:47:53;28.20;29.20
52973;DHT22;38837;48.916;2.336;2023-12-20T09:49:56;28.30;29.20
52973;DHT22;38837;48.916;2.336;2023-12-20T09:52:00;28.30;29.10
52973;DHT22;38837;48.916;2.336;2023-12-20T09:54:05;28.30;29.10
52973;DHT22;38837;48.916;2.336;2023-12-20T09:56:07;28.20;29.10
52973;DHT22;38837;48.916;2.336;2023-12-20T09:58:09;28.10;29.10
52973;DHT22;38837;48.916;2.336;2023-12-20T10:00:12;28.00;29.20
52973;DHT22;38837;48.916;2.336;2023-12-20T10:02:14;28.10;29.30
52973;DHT22;38837;48.916;2.336;2023-12-20T10:04:17;28.20;29.40
52973;DHT22;38837;48.916;2.336;2023-12-20T10:06:22;28.20;29.30
52973;DHT22;38837;48.916;2.336;2023-12-20T10:08:24;28.20;29.20
52973;DHT22;38837;48.916;2.336;2023-12-20T10:10:27;28.30;29.20
52973;DHT22;38837;48.916;2.336;2023-12-20T10:13:05;28.30;29.20
52973;DHT22;38837;48.916;2.336;2023-12-20T10:15:07;28.30;29.20
52973;DHT22;38837;48.916;2.336;2023-12-20T10:17:09;28.20;29.20
52973;DHT22;38837;48.916;2.336;2023-12-20T10:19:11;28.20;29.20
52973;DHT22;38837;48.916;2.336;2023-12-20T10:21:13;28.10;29.30
52973;DHT22;38837;48.916;2.336;2023-12-20T10:23:15;28.10;29.40
52973;DHT22;38837;48.916;2.336;2023-12-20T10:25:17;28.20;29.50
52973;DHT22;38837;48.916;2.336;2023-12-20T10:27:19;28.20;29.40
52973;DHT22;38837;48.916;2.336;2023-12-20T10:29:21;28.30;29.40
52973;DHT22;38837;48.916;2.336;2023-12-20T10:31:27;28.30;29.30
52973;DHT22;38837;48.916;2.336;2023-12-20T10:33:31;28.30;29.30
52973;DHT22;38837;48.916;2.336;2023-12-20T10:35:38;28.30;29.70
52973;DHT22;38837;48.916;2.336;2023-12-20T10:37:44;28.30;29.30
52973;DHT22;38837;48.916;2.336;2023-12-20T10:39:53;28.20;29.30
52973;DHT22;38837;48.916;2.336;2023-12-20T10:41:59;28.00;29.30
52973;DHT22;38837;48.916;2.336;2023-12-20T10:44:03;28.00;29.40
52973;DHT22;38837;48.916;2.336;2023-12-20T10:46:06;28.10;29.40
52973;DHT22;38837;48.916;2.336;2023-12-20T10:48:10;28.20;29.40
52973;DHT22;38837;48.916;2.336;2023-12-20T10:50:14;28.30;29.40
52973;DHT22;38837;48.916;2.336;2023-12-20T10:52:17;28.30;29.30
52973;DHT22;38837;48.916;2.336;2023-12-20T10:54:19;28.40;29.30
52973;DHT22;38837;48.916;2.336;2023-12-20T10:56:21;28.40;29.30
52973;DHT22;38837;48.916;2.336;2023-12-20T10:58:24;28.30;29.30
52973;DHT22;38837;48.916;2.336;2023-12-20T11:00:29;28.30;29.30
52973;DHT22;38837;48.916;2.336;2023-12-20T11:02:32;28.20;29.40
52973;DHT22;38837;48.916;2.336;2023-12-20T11:04:56;28.10;29.40
52973;DHT22;38837;48.916;2.336;2023-12-20T11:09:35;28.20;29.50
52973;DHT22;38837;48.916;2.336;2023-12-20T11:11:44;28.20;29.40
52973;DHT22;38837;48.916;2.336;2023-12-20T11:13:55;28.40;29.40
52973;DHT22;38837;48.916;2.336;2023-12-20T11:15:57;28.40;29.40
52973;DHT22;38837;48.916;2.336;2023-12-20T11:17:59;28.40;29.30
52973;DHT22;38837;48.916;2.336;2023-12-20T11:22:04;28.30;29.30
52973;DHT22;38837;48.916;2.336;2023-12-20T11:24:07;28.20;29.40
52973;DHT22;38837;48.916;2.336;2023-12-20T11:26:09;28.20;29.40
52973;DHT22;38837;48.916;2.336;2023-12-20T11:28:11;28.20;29.50
52973;DHT22;38837;48.916;2.336;2023-12-20T11:30:14;28.20;29.50
52973;DHT22;38837;48.916;2.336;2023-12-20T11:34:35;28.40;29.50
52973;DHT22;38837;48.916;2.336;2023-12-20T11:36:42;28.50;29.40
52973;DHT22;38837;48.916;2.336;2023-12-20T11:38:57;28.50;29.30
52973;DHT22;38837;48.916;2.336;2023-12-20T11:40:59;28.50;29.30
52973;DHT22;38837;48.916;2.336;2023-12-20T11:43:05;28.50;29.30
52973;DHT22;38837;48.916;2.336;2023-12-20T11:45:15;28.40;29.40
52973;DHT22;38837;48.916;2.336;2023-12-20T11:47:18;28.20;29.40
52973;DHT22;38837;48.916;2.336;2023-12-20T11:49:23;28.30;29.50
52973;DHT22;38837;48.916;2.336;2023-12-20T11:51:26;28.30;29.50
52973;DHT22;38837;48.916;2.336;2023-12-20T11:53:30;28.40;29.50
52973;DHT22;38837;48.916;2.336;2023-12-20T11:55:33;28.50;29.90
52973;DHT22;38837;48.916;2.336;2023-12-20T11:57:36;28.50;29.40
52973;DHT22;38837;48.916;2.336;2023-12-20T11:59:38;28.50;29.40
52973;DHT22;38837;48.916;2.336;2023-12-20T12:01:40;28.50;29.40
52973;DHT22;38837;48.916;2.336;2023-12-20T12:03:42;28.50;29.40
52973;DHT22;38837;48.916;2.336;2023-12-20T12:05:47;28.50;29.40
52973;DHT22;38837;48.916;2.336;2023-12-20T12:07:49;28.30;29.40
52973;DHT22;38837;48.916;2.336;2023-12-20T12:09:51;28.30;29.50
52973;DHT22;38837;48.916;2.336;2023-12-20T12:11:53;28.30;29.60
52973;DHT22;38837;48.916;2.336;2023-12-20T12:13:55;28.30;29.60
52973;DHT22;38837;48.916;2.336;2023-12-20T12:15:59;28.40;29.60
52973;DHT22;38837;48.916;2.336;2023-12-20T12:18:01;28.40;29.90
52973;DHT22;38837;48.916;2.336;2023-12-20T12:20:04;28.50;29.50
52973;DHT22;38837;48.916;2.336;2023-12-20T12:22:14;28.50;29.40
52973;DHT22;38837;48.916;2.336;2023-12-20T12:24:21;28.50;29.50
52973;DHT22;38837;48.916;2.336;2023-12-20T12:26:25;28.40;29.40
52973;DHT22;38837;48.916;2.336;2023-12-20T12:28:26;28.40;29.40
52973;DHT22;38837;48.916;2.336;2023-12-20T12:30:30;28.40;29.40
52973;DHT22;38837;48.916;2.336;2023-12-20T12:32:40;28.40;29.50
52973;DHT22;38837;48.916;2.336;2023-12-20T12:34:43;28.40;29.50
52973;DHT22;38837;48.916;2.336;2023-12-20T12:36:45;28.60;29.60
52973;DHT22;38837;48.916;2.336;2023-12-20T12:38:49;28.70;29.50
52973;DHT22;38837;48.916;2.336;2023-12-20T12:40:51;28.80;29.50
52973;DHT22;38837;48.916;2.336;2023-12-20T12:42:55;28.90;29.50
52973;DHT22;38837;48.916;2.336;2023-12-20T12:44:57;29.00;29.40
52973;DHT22;38837;48.916;2.336;2023-12-20T12:46:58;29.00;29.30
52973;DHT22;38837;48.916;2.336;2023-12-20T12:49:01;29.00;29.20
52973;DHT22;38837;48.916;2.336;2023-12-20T12:51:03;29.00;29.30
52973;DHT22;38837;48.916;2.336;2023-12-20T12:53:05;29.00;29.30
52973;DHT22;38837;48.916;2.336;2023-12-20T12:55:07;29.10;29.40
52973;DHT22;38837;48.916;2.336;2023-12-20T12:57:09;29.10;29.40
52973;DHT22;38837;48.916;2.336;2023-12-20T12:59:11;29.10;29.40
52973;DHT22;38837;48.916;2.336;2023-12-20T13:01:13;29.20;29.40